createdAt,value
2018-11-11T00:00:24.935Z,100.00
2018-11-11T00:02:54.853Z,100.00
2018-11-11T00:05:24.096Z,100.00
2018-11-11T00:07:53.278Z,100.00
2018-11-11T00:10:22.490Z,100.00
2018-11-11T00:12:51.675Z,100.00
2018-11-11T00:15:20.888Z,100.00
2018-11-11T00:17:50.119Z,100.00
2018-11-11T00:20:19.331Z,100.00
2018-11-11T00:22:48.538Z,100.00
2018-11-11T00:25:17.749Z,100.00
2018-11-11T00:27:46.951Z,100.00
2018-11-11T00:30:17.355Z,100.00
2018-11-11T00:32:46.568Z,100.00
2018-11-11T00:35:15.855Z,100.00
2018-11-11T00:37:45.002Z,100.00
2018-11-11T00:40:15.316Z,100.00
2018-11-11T00:42:44.910Z,100.00
2018-11-11T00:45:14.870Z,100.00
2018-11-11T00:47:44.799Z,100.00
2018-11-11T00:50:14.034Z,100.00
2018-11-11T00:52:43.238Z,100.00
2018-11-11T00:55:15.459Z,100.00
2018-11-11T00:57:45.296Z,100.00
2018-11-11T01:00:16.832Z,100.00
2018-11-11T01:02:46.382Z,100.00
2018-11-11T01:05:15.878Z,100.00
2018-11-11T01:07:45.069Z,100.00
2018-11-11T01:10:15.753Z,100.00
2018-11-11T01:12:45.350Z,100.00
2018-11-11T01:15:15.685Z,100.00
2018-11-11T01:17:44.863Z,100.00
2018-11-11T01:20:15.191Z,100.00
2018-11-11T01:22:44.903Z,100.00
2018-11-11T01:25:16.130Z,100.00
2018-11-11T01:27:45.363Z,100.00
2018-11-11T01:30:14.587Z,100.00
2018-11-11T01:32:43.787Z,100.00
2018-11-11T01:35:14.065Z,100.00
2018-11-11T01:37:43.688Z,100.00
2018-11-11T01:40:13.072Z,100.00
2018-11-11T01:42:42.271Z,100.00
2018-11-11T01:45:14.786Z,100.00
2018-11-11T01:47:44.674Z,100.00
2018-11-11T01:50:14.043Z,100.00
2018-11-11T01:52:43.236Z,100.00
2018-11-11T01:55:13.151Z,100.00
2018-11-11T01:57:42.398Z,100.00
2018-11-11T02:00:14.474Z,100.00
2018-11-11T02:02:44.139Z,100.00
2018-11-11T02:05:13.808Z,100.00
2018-11-11T02:07:44.011Z,100.00
2018-11-11T02:10:13.227Z,100.00
2018-11-11T02:12:43.455Z,100.00
2018-11-11T02:15:13.755Z,100.00
2018-11-11T02:17:42.962Z,100.00
2018-11-11T02:20:14.362Z,100.00
2018-11-11T02:22:44.303Z,100.00
2018-11-11T02:25:13.514Z,100.00
2018-11-11T02:27:42.743Z,100.00
2018-11-11T02:30:14.504Z,100.00
2018-11-11T02:32:44.014Z,100.00
2018-11-11T02:35:13.337Z,100.00
2018-11-11T02:37:42.800Z,100.00
2018-11-11T02:40:15.035Z,100.00
2018-11-11T02:42:44.534Z,100.00
2018-11-11T02:45:14.667Z,100.00
2018-11-11T02:47:43.876Z,100.00
2018-11-11T02:50:14.296Z,100.00
2018-11-11T02:52:43.955Z,100.00
2018-11-11T02:55:13.657Z,100.00
2018-11-11T02:57:43.238Z,100.00
2018-11-11T03:00:21.171Z,100.00
2018-11-11T03:02:50.604Z,100.00
2018-11-11T03:05:20.294Z,100.00
2018-11-11T03:07:49.496Z,100.00
2018-11-11T03:10:19.019Z,100.00
2018-11-11T03:12:49.116Z,100.00
2018-11-11T03:15:18.652Z,100.00
2018-11-11T03:17:47.845Z,100.00
2018-11-11T03:20:17.450Z,100.00
2018-11-11T03:22:46.638Z,100.00
2018-11-11T03:25:16.590Z,100.00
2018-11-11T03:27:47.038Z,100.00
2018-11-11T03:30:17.260Z,100.00
2018-11-11T03:32:46.499Z,100.00
2018-11-11T03:35:15.856Z,100.00
2018-11-11T03:37:45.784Z,100.00
2018-11-11T03:40:18.176Z,100.00
2018-11-11T03:42:47.750Z,100.00
2018-11-11T03:45:18.005Z,100.00
2018-11-11T03:47:48.214Z,100.00
2018-11-11T03:50:17.419Z,100.00
2018-11-11T03:52:46.817Z,100.00
2018-11-11T03:55:16.063Z,100.00
2018-11-11T03:57:45.319Z,100.00
2018-11-11T04:00:15.560Z,100.00
2018-11-11T04:02:44.819Z,100.00
2018-11-11T04:05:15.311Z,100.00
2018-11-11T04:07:45.509Z,100.00
2018-11-11T04:10:16.099Z,100.00
2018-11-11T04:12:45.702Z,100.00
2018-11-11T04:15:16.135Z,100.00
2018-11-11T04:17:45.499Z,100.00
2018-11-11T04:20:16.114Z,100.00
2018-11-11T04:22:45.343Z,100.00
2018-11-11T04:25:15.167Z,100.00
2018-11-11T04:27:44.422Z,100.00
2018-11-11T04:30:14.799Z,100.00
2018-11-11T04:32:44.165Z,100.00
2018-11-11T04:35:13.687Z,100.00
2018-11-11T04:37:42.915Z,100.00
2018-11-11T04:40:13.092Z,100.00
2018-11-11T04:42:42.491Z,100.00
2018-11-11T04:45:14.001Z,100.00
2018-11-11T04:47:43.560Z,100.00
2018-11-11T04:50:13.848Z,100.00
2018-11-11T04:52:43.587Z,100.00
2018-11-11T04:55:12.866Z,100.00
2018-11-11T04:57:42.506Z,100.00
2018-11-11T05:00:12.879Z,100.00
2018-11-11T05:02:42.364Z,100.00
2018-11-11T05:05:12.574Z,100.00
2018-11-11T05:07:42.097Z,100.00
2018-11-11T05:10:11.680Z,100.00
2018-11-11T05:12:40.906Z,100.00
2018-11-11T05:15:11.694Z,100.00
2018-11-11T05:17:40.907Z,100.00
2018-11-11T05:20:11.244Z,100.00
2018-11-11T05:22:40.534Z,100.00
2018-11-11T05:25:11.750Z,100.00
2018-11-11T05:27:41.083Z,100.00
2018-11-11T05:30:11.202Z,100.00
2018-11-11T05:32:40.674Z,100.00
2018-11-11T05:35:10.731Z,100.00
2018-11-11T05:37:40.427Z,100.00
2018-11-11T05:40:11.901Z,100.00
2018-11-11T05:42:41.883Z,100.00
2018-11-11T05:45:12.359Z,100.00
2018-11-11T05:47:41.907Z,100.00
2018-11-11T05:50:12.969Z,100.00
2018-11-11T05:52:42.803Z,100.00
2018-11-11T05:55:12.005Z,100.00
2018-11-11T05:57:41.346Z,100.00
2018-11-11T06:00:14.903Z,100.00
2018-11-11T06:02:44.490Z,100.00
2018-11-11T06:05:14.611Z,100.00
2018-11-11T06:07:43.843Z,100.00
2018-11-11T06:10:14.142Z,100.00
2018-11-11T06:12:43.390Z,100.00
2018-11-11T06:15:13.361Z,100.00
2018-11-11T06:17:42.583Z,100.00
2018-11-11T06:20:15.243Z,100.00
2018-11-11T06:22:44.487Z,100.00
2018-11-11T06:25:13.699Z,100.00
2018-11-11T06:27:42.971Z,100.00
2018-11-11T06:30:12.872Z,100.00
2018-11-11T06:32:42.274Z,100.00
2018-11-11T06:35:12.170Z,100.00
2018-11-11T06:37:41.692Z,100.00
2018-11-11T06:40:12.201Z,100.00
2018-11-11T06:42:41.854Z,100.00
2018-11-11T06:45:13.261Z,100.00
2018-11-11T06:47:43.194Z,100.00
2018-11-11T06:50:13.412Z,100.00
2018-11-11T06:52:43.106Z,100.00
2018-11-11T06:55:12.566Z,100.00
2018-11-11T06:57:41.819Z,100.00
2018-11-11T07:00:13.530Z,100.00
2018-11-11T07:03:00.048Z,100.00
2018-11-11T07:05:29.371Z,100.00
2018-11-11T07:07:58.583Z,100.00
2018-11-11T07:10:28.078Z,98.78
2018-11-11T07:12:57.999Z,100.00
2018-11-11T07:15:27.459Z,100.00
2018-11-11T07:17:56.823Z,100.00
2018-11-11T07:20:26.137Z,100.00
2018-11-11T07:22:55.577Z,98.40
2018-11-11T07:25:24.967Z,82.43
2018-11-11T07:27:54.211Z,64.61
2018-11-11T07:30:23.547Z,58.70
2018-11-11T07:32:53.004Z,57.62
2018-11-11T07:35:22.307Z,63.09
2018-11-11T07:37:51.563Z,71.59
2018-11-11T07:40:20.748Z,82.45
2018-11-11T07:42:49.934Z,84.99
2018-11-11T07:45:19.139Z,90.78
2018-11-11T07:47:48.392Z,91.70
2018-11-11T07:50:17.560Z,94.70
2018-11-11T07:52:46.766Z,96.51
2018-11-11T07:55:15.956Z,98.07
2018-11-11T07:57:45.140Z,98.74
2018-11-11T08:00:14.931Z,98.99
2018-11-11T08:02:44.350Z,100.00
2018-11-11T08:05:13.547Z,100.00
2018-11-11T08:07:42.730Z,97.44
2018-11-11T08:10:29.179Z,99.98
2018-11-11T08:12:58.374Z,100.00
2018-11-11T08:15:27.569Z,99.65
2018-11-11T08:17:57.849Z,93.57
2018-11-11T08:20:27.050Z,94.47
2018-11-11T08:22:56.295Z,96.78
2018-11-11T08:25:25.535Z,97.63
2018-11-11T08:27:54.745Z,98.62
2018-11-11T08:30:23.955Z,98.80
2018-11-11T08:32:53.187Z,98.95
2018-11-11T08:35:22.395Z,98.24
2018-11-11T08:37:51.638Z,94.98
2018-11-11T08:40:20.862Z,93.90
2018-11-11T08:42:50.070Z,86.51
2018-11-11T08:45:19.289Z,80.49
2018-11-11T08:47:48.487Z,77.17
2018-11-11T08:50:17.719Z,69.27
2018-11-11T08:52:46.931Z,69.34
2018-11-11T08:55:16.157Z,72.53
2018-11-11T08:57:45.417Z,73.42
2018-11-11T09:00:15.239Z,76.20
2018-11-11T09:02:44.443Z,82.85
2018-11-11T09:05:13.677Z,90.19
2018-11-11T09:07:42.903Z,87.18
2018-11-11T09:10:18.527Z,86.26
2018-11-11T09:12:47.751Z,82.49
2018-11-11T09:15:16.946Z,86.08
2018-11-11T09:17:46.142Z,83.81
2018-11-11T09:20:16.195Z,79.62
2018-11-11T09:22:45.396Z,76.30
2018-11-11T09:25:14.607Z,79.12
2018-11-11T09:27:43.791Z,73.46
2018-11-11T09:30:14.242Z,71.59
2018-11-11T09:32:43.697Z,68.68
2018-11-11T09:35:12.967Z,68.41
2018-11-11T09:37:42.209Z,63.36
2018-11-11T09:40:12.454Z,63.46
2018-11-11T09:42:41.752Z,66.38
2018-11-11T09:45:12.953Z,66.02
2018-11-11T09:47:42.330Z,67.40
2018-11-11T09:50:13.171Z,66.87
2018-11-11T09:52:42.423Z,68.98
2018-11-11T09:55:12.531Z,67.20
2018-11-11T09:57:41.923Z,64.13
2018-11-11T10:00:18.226Z,64.30
2018-11-11T10:02:52.472Z,65.62
2018-11-11T10:05:41.311Z,67.68
2018-11-11T10:08:47.934Z,70.89
2018-11-11T10:13:31.195Z,71.69
2018-11-11T10:16:09.664Z,67.38
2018-11-11T10:18:43.112Z,68.94
2018-11-11T10:23:22.908Z,68.67
2018-11-11T10:25:57.261Z,63.20
2018-11-11T10:28:36.825Z,51.99
2018-11-11T10:31:12.229Z,45.65
2018-11-11T10:33:45.993Z,42.13
2018-11-11T10:36:22.637Z,42.72
2018-11-11T10:38:58.904Z,44.80
2018-11-11T10:41:33.367Z,43.45
2018-11-11T10:44:04.600Z,45.33
2018-11-11T10:47:05.238Z,43.43
2018-11-11T10:49:40.195Z,37.71
2018-11-11T10:52:10.776Z,28.19
2018-11-11T10:54:40.257Z,28.57
2018-11-11T10:57:09.713Z,29.37
2018-11-11T10:59:39.048Z,32.08
2018-11-11T11:02:13.511Z,32.59
2018-11-11T11:04:48.088Z,27.28
2018-11-11T11:07:17.536Z,31.65
2018-11-11T11:09:46.847Z,34.79
2018-11-11T11:12:16.268Z,33.63
2018-11-11T11:14:45.773Z,34.25
2018-11-11T11:17:15.256Z,36.15
2018-11-11T11:19:44.595Z,37.50
2018-11-11T11:22:13.928Z,41.26
2018-11-11T11:24:43.325Z,40.89
2018-11-11T11:27:12.679Z,41.37
2018-11-11T11:29:41.998Z,41.42
2018-11-11T11:32:11.461Z,39.79
2018-11-11T11:34:40.704Z,39.77
2018-11-11T11:37:10.019Z,40.12
2018-11-11T11:39:39.359Z,39.76
2018-11-11T11:42:08.735Z,44.04
2018-11-11T11:44:38.084Z,43.96
2018-11-11T11:47:07.382Z,43.74
2018-11-11T11:49:36.750Z,41.31
2018-11-11T11:52:06.550Z,42.83
2018-11-11T11:54:35.972Z,46.55
2018-11-11T11:57:05.592Z,42.22
2018-11-11T11:59:34.871Z,42.27
2018-11-11T12:02:04.302Z,35.83
2018-11-11T12:04:34.728Z,37.39
2018-11-11T12:07:04.070Z,37.61
2018-11-11T12:09:33.393Z,41.56
2018-11-11T12:12:02.776Z,40.30
2018-11-11T12:14:32.101Z,44.87
2018-11-11T12:17:01.536Z,46.46
2018-11-11T12:19:30.837Z,43.99
2018-11-11T12:22:00.236Z,43.04
2018-11-11T12:24:29.624Z,39.85
2018-11-11T12:26:58.927Z,44.75
2018-11-11T12:29:28.251Z,43.20
2018-11-11T12:31:57.676Z,44.27
2018-11-11T12:34:27.092Z,44.18
2018-11-11T12:36:56.451Z,46.59
2018-11-11T12:39:25.898Z,44.91
2018-11-11T12:41:55.093Z,49.19
2018-11-11T12:44:24.409Z,48.34
2018-11-11T12:46:53.832Z,47.72
2018-11-11T12:49:23.059Z,51.71
2018-11-11T12:51:52.447Z,51.18
2018-11-11T12:54:21.752Z,49.97
2018-11-11T12:56:51.091Z,48.99
2018-11-11T12:59:20.381Z,51.47
2018-11-11T13:01:49.702Z,47.76
2018-11-11T13:04:19.023Z,50.03
2018-11-11T13:06:48.290Z,49.89
2018-11-11T13:09:17.587Z,48.11
2018-11-11T13:11:46.919Z,47.87
2018-11-11T13:14:16.180Z,40.51
2018-11-11T13:16:45.477Z,43.47
2018-11-11T13:19:14.947Z,49.45
2018-11-11T13:21:44.237Z,46.44
2018-11-11T13:24:13.495Z,49.24
2018-11-11T13:26:42.784Z,48.18
2018-11-11T13:29:12.111Z,48.67
2018-11-11T13:31:41.409Z,44.00
2018-11-11T13:34:10.753Z,46.49
2018-11-11T13:36:40.063Z,51.36
2018-11-11T13:39:12.091Z,51.87
2018-11-11T13:41:41.552Z,50.96
2018-11-11T13:44:10.898Z,47.40
2018-11-11T13:46:40.433Z,47.49
2018-11-11T13:49:09.536Z,48.71
2018-11-11T13:51:38.811Z,51.21
2018-11-11T13:54:08.204Z,50.98
2018-11-11T13:56:37.763Z,47.46
2018-11-11T13:59:07.328Z,54.09
2018-11-11T14:01:36.677Z,57.11
2018-11-11T14:04:05.926Z,58.43
2018-11-11T14:06:35.297Z,59.53
2018-11-11T14:09:07.821Z,59.24
2018-11-11T14:11:37.161Z,59.02
2018-11-11T14:14:07.585Z,58.16
2018-11-11T14:16:37.033Z,59.53
2018-11-11T14:19:07.067Z,59.63
2018-11-11T14:21:36.168Z,58.73
2018-11-11T14:24:05.629Z,59.00
2018-11-11T14:26:35.185Z,58.99
2018-11-11T14:29:04.537Z,59.65
2018-11-11T14:31:33.883Z,59.44
2018-11-11T14:34:03.239Z,59.59
2018-11-11T14:36:32.640Z,59.88
2018-11-11T14:39:01.991Z,60.81
2018-11-11T14:41:31.382Z,62.50
2018-11-11T14:44:00.750Z,63.08
2018-11-11T14:46:30.113Z,63.17
2018-11-11T14:48:59.449Z,64.62
2018-11-11T14:51:28.838Z,65.64
2018-11-11T14:53:58.160Z,65.47
2018-11-11T14:56:27.494Z,67.11
2018-11-11T14:58:56.921Z,67.71
2018-11-11T15:01:26.106Z,69.10
2018-11-11T15:03:55.449Z,70.26
2018-11-11T15:06:24.997Z,71.26
2018-11-11T15:08:54.431Z,72.15
2018-11-11T15:11:24.011Z,72.95
2018-11-11T15:13:53.335Z,73.80
2018-11-11T15:16:23.535Z,73.24
2018-11-11T15:18:52.887Z,72.46
2018-11-11T15:21:22.175Z,72.76
2018-11-11T15:23:51.562Z,73.57
2018-11-11T15:26:20.897Z,75.37
2018-11-11T15:28:50.277Z,76.57
2018-11-11T15:31:19.787Z,78.54
2018-11-11T15:33:49.044Z,79.74
2018-11-11T15:36:18.367Z,81.56
2018-11-11T15:38:47.672Z,80.71
2018-11-11T15:41:17.032Z,82.17
2018-11-11T15:43:46.265Z,83.73
2018-11-11T15:46:15.605Z,84.78
2018-11-11T15:48:44.894Z,84.16
2018-11-11T15:51:14.278Z,85.35
2018-11-11T15:53:43.723Z,86.36
2018-11-11T15:56:13.140Z,87.36
2018-11-11T15:58:42.477Z,88.61
2018-11-11T16:01:11.768Z,90.33
2018-11-11T16:03:41.110Z,91.58
2018-11-11T16:06:10.466Z,92.79
2018-11-11T16:08:39.798Z,93.01
2018-11-11T16:11:09.337Z,92.90
2018-11-11T16:13:38.609Z,93.81
2018-11-11T16:16:08.049Z,93.83
2018-11-11T16:18:37.405Z,94.53
2018-11-11T16:21:06.920Z,95.68
2018-11-11T16:23:36.373Z,96.20
2018-11-11T16:26:05.902Z,97.08
2018-11-11T16:28:35.278Z,97.75
2018-11-11T16:31:05.034Z,97.35
2018-11-11T16:33:34.507Z,96.92
2018-11-11T16:36:04.050Z,96.44
2018-11-11T16:38:33.446Z,96.62
2018-11-11T16:41:02.974Z,96.67
2018-11-11T16:43:32.244Z,96.63
2018-11-11T16:46:01.545Z,97.18
2018-11-11T16:48:30.879Z,97.18
2018-11-11T16:51:00.192Z,97.46
2018-11-11T16:53:29.445Z,98.11
2018-11-11T16:55:58.828Z,98.00
2018-11-11T16:58:28.235Z,98.03
2018-11-11T17:00:57.615Z,98.52
2018-11-11T17:03:26.953Z,98.82
2018-11-11T17:05:56.328Z,98.44
2018-11-11T17:08:25.633Z,98.56
2018-11-11T17:10:55.017Z,98.99
2018-11-11T17:13:24.464Z,98.59
2018-11-11T17:15:55.123Z,99.45
2018-11-11T17:18:24.557Z,100.00
2018-11-11T17:20:54.215Z,100.00
2018-11-11T17:23:23.613Z,100.00
2018-11-11T17:25:53.128Z,100.00
2018-11-11T17:28:22.695Z,100.00
2018-11-11T17:30:52.095Z,100.00
2018-11-11T17:33:21.505Z,100.00
2018-11-11T17:35:51.038Z,100.00
2018-11-11T17:38:20.425Z,100.00
2018-11-11T17:40:49.777Z,100.00
2018-11-11T17:43:19.144Z,100.00
2018-11-11T17:45:48.474Z,100.00
2018-11-11T17:48:17.880Z,100.00
2018-11-11T17:50:47.291Z,100.00
2018-11-11T17:53:16.708Z,100.00
2018-11-11T17:55:46.336Z,100.00
2018-11-11T17:58:15.637Z,100.00
2018-11-11T18:00:44.992Z,100.00
2018-11-11T18:03:14.533Z,100.00
2018-11-11T18:05:43.964Z,100.00
2018-11-11T18:08:13.586Z,100.00
2018-11-11T18:10:43.012Z,100.00
2018-11-11T18:13:12.316Z,100.00
2018-11-11T18:15:41.695Z,100.00
2018-11-11T18:18:11.033Z,100.00
2018-11-11T18:20:40.849Z,100.00
2018-11-11T18:23:10.134Z,100.00
2018-11-11T18:25:39.471Z,100.00
2018-11-11T18:28:08.881Z,100.00
2018-11-11T18:30:38.194Z,100.00
2018-11-11T18:33:07.587Z,100.00
2018-11-11T18:35:36.952Z,100.00
2018-11-11T18:38:06.515Z,100.00
2018-11-11T18:40:35.849Z,100.00
2018-11-11T18:43:05.807Z,100.00
2018-11-11T18:45:35.196Z,100.00
2018-11-11T18:48:04.955Z,100.00
2018-11-11T18:50:34.782Z,100.00
2018-11-11T18:53:04.644Z,100.00
2018-11-11T18:55:33.965Z,100.00
2018-11-11T18:58:03.347Z,100.00
2018-11-11T19:00:33.866Z,100.00
2018-11-11T19:03:03.248Z,100.00
2018-11-11T19:05:32.561Z,100.00
2018-11-11T19:08:01.993Z,100.00
2018-11-11T19:10:32.680Z,100.00
2018-11-11T19:13:03.484Z,100.00
2018-11-11T19:15:32.819Z,100.00
2018-11-11T19:18:02.731Z,100.00
2018-11-11T19:20:32.086Z,100.00
2018-11-11T19:23:01.424Z,100.00
2018-11-11T19:25:31.331Z,100.00
2018-11-11T19:28:01.662Z,100.00
2018-11-11T19:30:32.880Z,100.00
2018-11-11T19:33:02.215Z,100.00
2018-11-11T19:35:31.551Z,100.00
2018-11-11T19:38:00.916Z,100.00
2018-11-11T19:40:30.630Z,100.00
2018-11-11T19:43:00.964Z,100.00
2018-11-11T19:45:31.138Z,100.00
2018-11-11T19:48:00.557Z,100.00
2018-11-11T19:50:30.499Z,100.00
2018-11-11T19:53:00.173Z,100.00
2018-11-11T19:55:30.184Z,100.00
2018-11-11T19:57:59.487Z,100.00
2018-11-11T20:00:30.271Z,100.00
2018-11-11T20:03:00.709Z,100.00
2018-11-11T20:05:30.115Z,100.00
2018-11-11T20:08:00.481Z,100.00
2018-11-11T20:10:30.441Z,100.00
2018-11-11T20:13:00.475Z,100.00
2018-11-11T20:15:31.244Z,100.00
2018-11-11T20:18:00.570Z,100.00
2018-11-11T20:20:32.456Z,100.00
2018-11-11T20:23:01.762Z,100.00
2018-11-11T20:25:31.064Z,100.00
2018-11-11T20:28:00.394Z,100.00
2018-11-11T20:30:31.054Z,100.00
2018-11-11T20:33:00.363Z,100.00
2018-11-11T20:35:30.627Z,100.00
2018-11-11T20:37:59.875Z,100.00
2018-11-11T20:40:29.625Z,100.00
2018-11-11T20:42:59.336Z,100.00
2018-11-11T20:45:30.048Z,100.00
2018-11-11T20:48:00.594Z,100.00
2018-11-11T20:50:31.100Z,100.00
2018-11-11T20:53:01.672Z,100.00
2018-11-11T20:55:31.027Z,100.00
2018-11-11T20:58:00.413Z,100.00
2018-11-11T21:00:35.300Z,100.00
2018-11-11T21:03:04.817Z,100.00
2018-11-11T21:05:34.128Z,100.00
2018-11-11T21:08:03.471Z,100.00
2018-11-11T21:10:32.871Z,100.00
2018-11-11T21:13:02.224Z,100.00
2018-11-11T21:15:32.245Z,100.00
2018-11-11T21:18:01.558Z,100.00
2018-11-11T21:20:32.191Z,100.00
2018-11-11T21:23:01.487Z,100.00
2018-11-11T21:25:30.895Z,100.00
2018-11-11T21:28:00.142Z,100.00
2018-11-11T21:30:30.709Z,100.00
2018-11-11T21:32:59.998Z,100.00
2018-11-11T21:35:29.302Z,100.00
2018-11-11T21:37:58.639Z,100.00
2018-11-11T21:40:28.243Z,100.00
2018-11-11T21:42:57.855Z,100.00
2018-11-11T21:45:28.104Z,100.00
2018-11-11T21:47:57.438Z,100.00
2018-11-11T21:50:27.594Z,100.00
2018-11-11T21:53:17.579Z,100.00
2018-11-11T21:55:46.861Z,100.00
2018-11-11T21:58:16.180Z,100.00
2018-11-11T22:00:45.509Z,100.00
2018-11-11T22:03:14.799Z,100.00
2018-11-11T22:05:44.132Z,100.00
2018-11-11T22:08:13.447Z,100.00
2018-11-11T22:10:42.748Z,100.00
2018-11-11T22:13:12.083Z,100.00
2018-11-11T22:15:41.411Z,100.00
2018-11-11T22:18:10.614Z,100.00
2018-11-11T22:20:39.930Z,100.00
2018-11-11T22:23:09.247Z,100.00
2018-11-11T22:25:38.544Z,100.00
2018-11-11T22:28:07.842Z,100.00
2018-11-11T22:30:37.143Z,100.00
2018-11-11T22:33:06.456Z,100.00
2018-11-11T22:35:35.936Z,100.00
2018-11-11T22:38:05.498Z,100.00
2018-11-11T22:40:34.781Z,100.00
2018-11-11T22:43:04.015Z,100.00
2018-11-11T22:45:33.331Z,100.00
2018-11-11T22:48:02.649Z,100.00
2018-11-11T22:50:31.996Z,100.00
2018-11-11T22:53:01.359Z,100.00
2018-11-11T22:55:30.683Z,100.00
2018-11-11T22:57:59.981Z,100.00
2018-11-11T23:00:30.323Z,100.00
2018-11-11T23:02:59.672Z,100.00
2018-11-11T23:05:28.979Z,100.00
2018-11-11T23:07:58.287Z,100.00
2018-11-11T23:10:27.579Z,100.00
2018-11-11T23:12:56.881Z,100.00
2018-11-11T23:15:26.164Z,100.00
2018-11-11T23:17:55.464Z,100.00
2018-11-11T23:20:24.703Z,100.00
2018-11-11T23:22:53.980Z,100.00
2018-11-11T23:25:23.662Z,100.00
2018-11-11T23:27:52.985Z,100.00
2018-11-11T23:30:23.293Z,100.00
2018-11-11T23:32:52.776Z,100.00
2018-11-11T23:35:22.288Z,100.00
2018-11-11T23:37:51.573Z,100.00
2018-11-11T23:40:20.846Z,100.00
2018-11-11T23:42:50.121Z,100.00
2018-11-11T23:45:19.399Z,100.00
2018-11-11T23:47:48.680Z,100.00
2018-11-11T23:50:19.149Z,100.00
2018-11-11T23:52:48.798Z,100.00
2018-11-11T23:55:19.088Z,100.00
2018-11-11T23:57:48.610Z,100.00
